sensor_id;sensor_type;location;lat;lon;timestamp;pressure;altitude;pressure_sealevel;temperature;humidity
48089;BME280;33867;50.314;7.802;2023-04-08T00:00:44;100873.66;;;7.26;nan
48089;BME280;33867;50.314;7.802;2023-04-08T00:04:04;100868.53;;;7.23;nan
48089;BME280;33867;50.314;7.802;2023-04-08T00:07:22;100863.19;;;7.23;nan
48089;BME280;33867;50.314;7.802;2023-04-08T00:10:42;100866.28;;;7.17;nan
48089;BME280;33867;50.314;7.802;2023-04-08T00:14:02;100864.34;;;7.19;nan
48089;BME280;33867;50.314;7.802;2023-04-08T00:17:22;100867.03;;;7.19;nan
48089;BME280;33867;50.314;7.802;2023-04-08T00:20:41;100869.41;;;7.11;nan
48089;BME280;33867;50.314;7.802;2023-04-08T00:24:00;100876.25;;;7.15;nan
48089;BME280;33867;50.314;7.802;2023-04-08T00:27:19;100871.63;;;7.17;nan
48089;BME280;33867;50.314;7.802;2023-04-08T00:30:38;100869.19;;;7.14;nan
48089;BME280;33867;50.314;7.802;2023-04-08T00:33:57;100870.13;;;7.26;nan
48089;BME280;33867;50.314;7.802;2023-04-08T00:37:16;100857.94;;;7.09;nan
48089;BME280;33867;50.314;7.802;2023-04-08T00:40:36;100855.69;;;7.03;nan
48089;BME280;33867;50.314;7.802;2023-04-08T00:43:55;100858.91;;;6.83;nan
48089;BME280;33867;50.314;7.802;2023-04-08T00:47:14;100863.13;;;6.87;nan
48089;BME280;33867;50.314;7.802;2023-04-08T00:50:34;100859.75;;;6.96;nan
48089;BME280;33867;50.314;7.802;2023-04-08T00:53:54;100867.16;;;7.05;nan
48089;BME280;33867;50.314;7.802;2023-04-08T00:57:13;100868.34;;;6.88;nan
48089;BME280;33867;50.314;7.802;2023-04-08T01:00:32;100876.78;;;6.95;nan
48089;BME280;33867;50.314;7.802;2023-04-08T01:03:59;100876.91;;;6.93;nan
48089;BME280;33867;50.314;7.802;2023-04-08T01:07:46;100879.91;;;7.01;nan
48089;BME280;33867;50.314;7.802;2023-04-08T01:11:08;100874.13;;;6.95;nan
48089;BME280;33867;50.314;7.802;2023-04-08T01:14:27;100877.75;;;6.94;nan
48089;BME280;33867;50.314;7.802;2023-04-08T01:17:49;100880.09;;;6.86;nan
48089;BME280;33867;50.314;7.802;2023-04-08T01:21:11;100880.66;;;6.91;nan
48089;BME280;33867;50.314;7.802;2023-04-08T01:24:35;100871.88;;;6.89;nan
48089;BME280;33867;50.314;7.802;2023-04-08T01:27:58;100879.38;;;6.84;nan
48089;BME280;33867;50.314;7.802;2023-04-08T01:31:18;100880.31;;;6.70;nan
48089;BME280;33867;50.314;7.802;2023-04-08T01:34:38;100890.28;;;6.55;nan
48089;BME280;33867;50.314;7.802;2023-04-08T01:37:59;100876.34;;;6.63;nan
48089;BME280;33867;50.314;7.802;2023-04-08T01:41:19;100880.09;;;6.60;nan
48089;BME280;33867;50.314;7.802;2023-04-08T01:44:39;100882.47;;;6.65;nan
48089;BME280;33867;50.314;7.802;2023-04-08T01:48:00;100874.31;;;6.54;nan
48089;BME280;33867;50.314;7.802;2023-04-08T01:51:21;100886.97;;;6.52;nan
48089;BME280;33867;50.314;7.802;2023-04-08T01:54:40;100886.81;;;6.28;nan
48089;BME280;33867;50.314;7.802;2023-04-08T01:58:00;100880.50;;;6.29;nan
48089;BME280;33867;50.314;7.802;2023-04-08T02:01:21;100881.97;;;6.20;nan
48089;BME280;33867;50.314;7.802;2023-04-08T02:04:42;100889.09;;;6.07;nan
48089;BME280;33867;50.314;7.802;2023-04-08T02:08:01;100883.16;;;6.02;nan
48089;BME280;33867;50.314;7.802;2023-04-08T02:11:20;100881.88;;;5.95;nan
48089;BME280;33867;50.314;7.802;2023-04-08T02:14:39;100880.09;;;5.81;nan
48089;BME280;33867;50.314;7.802;2023-04-08T02:18:04;100888.47;;;5.75;nan
48089;BME280;33867;50.314;7.802;2023-04-08T02:21:31;100895.16;;;5.68;nan
48089;BME280;33867;50.314;7.802;2023-04-08T02:24:52;100889.69;;;5.56;nan
48089;BME280;33867;50.314;7.802;2023-04-08T02:28:14;100893.00;;;5.60;nan
48089;BME280;33867;50.314;7.802;2023-04-08T02:31:33;100894.06;;;5.57;nan
48089;BME280;33867;50.314;7.802;2023-04-08T02:34:53;100893.06;;;5.46;nan
48089;BME280;33867;50.314;7.802;2023-04-08T02:38:15;100888.91;;;5.54;nan
48089;BME280;33867;50.314;7.802;2023-04-08T02:41:35;100890.06;;;5.50;nan
48089;BME280;33867;50.314;7.802;2023-04-08T02:44:55;100898.63;;;5.70;nan
48089;BME280;33867;50.314;7.802;2023-04-08T02:48:15;100898.25;;;5.62;nan
48089;BME280;33867;50.314;7.802;2023-04-08T02:51:34;100897.50;;;5.60;nan
48089;BME280;33867;50.314;7.802;2023-04-08T02:54:53;100898.53;;;5.71;nan
48089;BME280;33867;50.314;7.802;2023-04-08T02:58:12;100900.13;;;5.74;nan
48089;BME280;33867;50.314;7.802;2023-04-08T03:01:31;100907.84;;;5.78;nan
48089;BME280;33867;50.314;7.802;2023-04-08T03:04:50;100903.19;;;5.82;nan
48089;BME280;33867;50.314;7.802;2023-04-08T03:08:09;100913.13;;;5.66;nan
48089;BME280;33867;50.314;7.802;2023-04-08T03:11:28;100916.91;;;5.76;nan
48089;BME280;33867;50.314;7.802;2023-04-08T03:14:48;100918.84;;;5.74;nan
48089;BME280;33867;50.314;7.802;2023-04-08T03:18:07;100920.09;;;5.54;nan
48089;BME280;33867;50.314;7.802;2023-04-08T03:21:26;100924.88;;;5.63;nan
48089;BME280;33867;50.314;7.802;2023-04-08T03:24:46;100920.25;;;5.79;nan
48089;BME280;33867;50.314;7.802;2023-04-08T03:28:05;100930.28;;;5.76;nan
48089;BME280;33867;50.314;7.802;2023-04-08T03:31:24;100925.00;;;5.88;nan
48089;BME280;33867;50.314;7.802;2023-04-08T03:34:44;100934.75;;;6.04;nan
48089;BME280;33867;50.314;7.802;2023-04-08T03:38:03;100929.13;;;6.21;nan
48089;BME280;33867;50.314;7.802;2023-04-08T03:41:22;100933.50;;;6.22;nan
48089;BME280;33867;50.314;7.802;2023-04-08T03:44:41;100927.69;;;6.15;nan
48089;BME280;33867;50.314;7.802;2023-04-08T03:48:00;100937.81;;;5.98;nan
48089;BME280;33867;50.314;7.802;2023-04-08T03:51:19;100938.13;;;5.93;nan
48089;BME280;33867;50.314;7.802;2023-04-08T03:54:39;100939.28;;;6.16;nan
48089;BME280;33867;50.314;7.802;2023-04-08T03:57:58;100930.19;;;6.19;nan
48089;BME280;33867;50.314;7.802;2023-04-08T04:01:17;100928.78;;;6.40;nan
48089;BME280;33867;50.314;7.802;2023-04-08T04:04:36;100929.84;;;6.50;nan
48089;BME280;33867;50.314;7.802;2023-04-08T04:07:55;100932.31;;;6.40;nan
48089;BME280;33867;50.314;7.802;2023-04-08T04:11:16;100934.84;;;6.29;nan
48089;BME280;33867;50.314;7.802;2023-04-08T04:14:35;100939.38;;;6.41;nan
48089;BME280;33867;50.314;7.802;2023-04-08T04:17:54;100941.09;;;6.55;nan
48089;BME280;33867;50.314;7.802;2023-04-08T04:21:13;100932.31;;;6.53;nan
48089;BME280;33867;50.314;7.802;2023-04-08T04:24:32;100934.25;;;6.51;nan
48089;BME280;33867;50.314;7.802;2023-04-08T04:27:51;100942.16;;;6.40;nan
48089;BME280;33867;50.314;7.802;2023-04-08T04:31:23;100938.50;;;6.41;nan
48089;BME280;33867;50.314;7.802;2023-04-08T04:34:45;100937.13;;;6.48;nan
48089;BME280;33867;50.314;7.802;2023-04-08T04:38:04;100943.78;;;6.55;nan
48089;BME280;33867;50.314;7.802;2023-04-08T04:41:28;100941.31;;;6.52;nan
48089;BME280;33867;50.314;7.802;2023-04-08T04:44:47;100947.09;;;6.59;nan
48089;BME280;33867;50.314;7.802;2023-04-08T04:48:06;100957.38;;;6.52;nan
48089;BME280;33867;50.314;7.802;2023-04-08T04:51:25;100959.22;;;6.64;nan
48089;BME280;33867;50.314;7.802;2023-04-08T04:54:44;100956.28;;;6.42;nan
48089;BME280;33867;50.314;7.802;2023-04-08T04:58:04;100964.28;;;6.42;nan
48089;BME280;33867;50.314;7.802;2023-04-08T05:01:23;100957.78;;;6.59;nan
48089;BME280;33867;50.314;7.802;2023-04-08T05:04:42;100960.03;;;6.52;nan
48089;BME280;33867;50.314;7.802;2023-04-08T05:08:01;100962.63;;;6.54;nan
48089;BME280;33867;50.314;7.802;2023-04-08T05:11:20;100967.72;;;6.44;nan
48089;BME280;33867;50.314;7.802;2023-04-08T05:14:39;100965.84;;;6.32;nan
48089;BME280;33867;50.314;7.802;2023-04-08T05:17:59;100966.41;;;6.37;nan
48089;BME280;33867;50.314;7.802;2023-04-08T05:21:19;100974.03;;;6.43;nan
48089;BME280;33867;50.314;7.802;2023-04-08T05:24:38;100972.63;;;6.77;nan
48089;BME280;33867;50.314;7.802;2023-04-08T05:27:57;100971.34;;;6.83;nan
48089;BME280;33867;50.314;7.802;2023-04-08T05:31:17;100972.88;;;6.99;nan
48089;BME280;33867;50.314;7.802;2023-04-08T05:34:36;100974.78;;;6.97;nan
48089;BME280;33867;50.314;7.802;2023-04-08T05:37:55;100977.78;;;6.93;nan
48089;BME280;33867;50.314;7.802;2023-04-08T05:41:14;100973.72;;;7.00;nan
48089;BME280;33867;50.314;7.802;2023-04-08T05:44:33;100979.63;;;7.30;nan
48089;BME280;33867;50.314;7.802;2023-04-08T05:47:52;100980.69;;;7.41;nan
48089;BME280;33867;50.314;7.802;2023-04-08T05:51:14;100982.50;;;7.40;nan
48089;BME280;33867;50.314;7.802;2023-04-08T05:54:35;100980.25;;;7.21;nan
48089;BME280;33867;50.314;7.802;2023-04-08T05:57:54;100984.22;;;7.28;nan
48089;BME280;33867;50.314;7.802;2023-04-08T06:01:13;100987.34;;;7.48;nan
48089;BME280;33867;50.314;7.802;2023-04-08T06:04:32;100991.00;;;7.47;nan
48089;BME280;33867;50.314;7.802;2023-04-08T06:07:51;100989.59;;;7.28;nan
48089;BME280;33867;50.314;7.802;2023-04-08T06:11:10;100992.88;;;7.45;nan
48089;BME280;33867;50.314;7.802;2023-04-08T06:14:29;100986.56;;;7.71;nan
48089;BME280;33867;50.314;7.802;2023-04-08T06:17:48;100987.53;;;7.70;nan
48089;BME280;33867;50.314;7.802;2023-04-08T06:21:09;100995.47;;;7.72;nan
48089;BME280;33867;50.314;7.802;2023-04-08T06:24:28;100998.75;;;7.75;nan
48089;BME280;33867;50.314;7.802;2023-04-08T06:27:47;100998.25;;;7.70;nan
48089;BME280;33867;50.314;7.802;2023-04-08T06:31:06;101000.47;;;9.08;nan
48089;BME280;33867;50.314;7.802;2023-04-08T06:34:25;100998.66;;;11.68;nan
48089;BME280;33867;50.314;7.802;2023-04-08T06:37:45;101009.06;;;13.21;nan
48089;BME280;33867;50.314;7.802;2023-04-08T06:41:05;100986.25;;;13.80;nan
48089;BME280;33867;50.314;7.802;2023-04-08T06:44:24;100994.63;;;12.24;nan
48089;BME280;33867;50.314;7.802;2023-04-08T06:47:43;101008.03;;;12.54;nan
48089;BME280;33867;50.314;7.802;2023-04-08T06:51:02;101006.53;;;12.12;nan
48089;BME280;33867;50.314;7.802;2023-04-08T06:54:22;101004.78;;;11.70;nan
48089;BME280;33867;50.314;7.802;2023-04-08T06:57:40;101004.56;;;11.53;nan
48089;BME280;33867;50.314;7.802;2023-04-08T07:01:00;101014.00;;;11.37;nan
48089;BME280;33867;50.314;7.802;2023-04-08T07:04:20;101015.13;;;11.14;nan
48089;BME280;33867;50.314;7.802;2023-04-08T07:07:39;101006.56;;;11.30;nan
48089;BME280;33867;50.314;7.802;2023-04-08T07:10:58;101021.31;;;11.56;nan
48089;BME280;33867;50.314;7.802;2023-04-08T07:14:18;101027.47;;;11.17;nan
48089;BME280;33867;50.314;7.802;2023-04-08T07:17:37;101029.69;;;10.59;nan
48089;BME280;33867;50.314;7.802;2023-04-08T07:20:57;101043.72;;;9.96;nan
48089;BME280;33867;50.314;7.802;2023-04-08T07:24:16;101039.19;;;9.97;nan
48089;BME280;33867;50.314;7.802;2023-04-08T07:27:35;101037.69;;;9.82;nan
48089;BME280;33867;50.314;7.802;2023-04-08T07:30:54;101046.28;;;9.98;nan
48089;BME280;33867;50.314;7.802;2023-04-08T07:34:13;101053.63;;;9.85;nan
48089;BME280;33867;50.314;7.802;2023-04-08T07:37:32;101055.66;;;9.81;nan
48089;BME280;33867;50.314;7.802;2023-04-08T07:40:51;101062.16;;;10.01;nan
48089;BME280;33867;50.314;7.802;2023-04-08T07:44:10;101054.72;;;9.71;nan
48089;BME280;33867;50.314;7.802;2023-04-08T07:47:29;101057.03;;;10.09;nan
48089;BME280;33867;50.314;7.802;2023-04-08T07:50:48;101053.84;;;10.15;nan
48089;BME280;33867;50.314;7.802;2023-04-08T07:54:07;101051.66;;;10.09;nan
48089;BME280;33867;50.314;7.802;2023-04-08T07:57:28;101054.47;;;10.08;nan
48089;BME280;33867;50.314;7.802;2023-04-08T08:00:48;101053.25;;;10.34;nan
48089;BME280;33867;50.314;7.802;2023-04-08T08:04:07;101058.59;;;10.45;nan
48089;BME280;33867;50.314;7.802;2023-04-08T08:07:26;101054.00;;;10.68;nan
48089;BME280;33867;50.314;7.802;2023-04-08T08:10:46;101062.19;;;10.78;nan
48089;BME280;33867;50.314;7.802;2023-04-08T08:14:05;101055.47;;;11.04;nan
48089;BME280;33867;50.314;7.802;2023-04-08T08:17:25;101061.06;;;11.33;nan
48089;BME280;33867;50.314;7.802;2023-04-08T08:20:47;101061.06;;;11.54;nan
48089;BME280;33867;50.314;7.802;2023-04-08T08:24:07;101062.66;;;12.08;nan
48089;BME280;33867;50.314;7.802;2023-04-08T08:27:26;101066.31;;;12.47;nan
48089;BME280;33867;50.314;7.802;2023-04-08T08:34:27;101070.19;;;12.64;nan
48089;BME280;33867;50.314;7.802;2023-04-08T08:37:46;101066.81;;;12.72;nan
48089;BME280;33867;50.314;7.802;2023-04-08T08:41:05;101069.19;;;12.55;nan
48089;BME280;33867;50.314;7.802;2023-04-08T08:44:24;101072.88;;;12.45;nan
48089;BME280;33867;50.314;7.802;2023-04-08T08:47:43;101075.19;;;12.19;nan
48089;BME280;33867;50.314;7.802;2023-04-08T08:51:07;101079.19;;;11.94;nan
48089;BME280;33867;50.314;7.802;2023-04-08T08:54:26;101079.34;;;11.92;nan
48089;BME280;33867;50.314;7.802;2023-04-08T08:57:45;101078.03;;;11.66;nan
48089;BME280;33867;50.314;7.802;2023-04-08T09:01:30;101093.44;;;11.75;nan
48089;BME280;33867;50.314;7.802;2023-04-08T09:05:03;101093.28;;;11.77;nan
48089;BME280;33867;50.314;7.802;2023-04-08T09:08:35;101100.34;;;11.89;nan
48089;BME280;33867;50.314;7.802;2023-04-08T09:12:02;101097.59;;;11.79;nan
48089;BME280;33867;50.314;7.802;2023-04-08T09:15:22;101101.47;;;11.86;nan
48089;BME280;33867;50.314;7.802;2023-04-08T09:18:43;101108.44;;;11.89;nan
48089;BME280;33867;50.314;7.802;2023-04-08T09:22:08;101109.56;;;11.86;nan
48089;BME280;33867;50.314;7.802;2023-04-08T09:25:30;101103.63;;;11.92;nan
48089;BME280;33867;50.314;7.802;2023-04-08T09:29:16;101106.53;;;11.80;nan
48089;BME280;33867;50.314;7.802;2023-04-08T09:32:56;101103.91;;;11.89;nan
48089;BME280;33867;50.314;7.802;2023-04-08T09:36:16;101108.41;;;12.10;nan
48089;BME280;33867;50.314;7.802;2023-04-08T09:39:36;101113.59;;;12.22;nan
48089;BME280;33867;50.314;7.802;2023-04-08T09:42:58;101108.31;;;12.21;nan
48089;BME280;33867;50.314;7.802;2023-04-08T09:46:28;101113.53;;;12.13;nan
48089;BME280;33867;50.314;7.802;2023-04-08T09:49:54;101119.66;;;12.15;nan
48089;BME280;33867;50.314;7.802;2023-04-08T09:53:29;101116.13;;;12.24;nan
48089;BME280;33867;50.314;7.802;2023-04-08T09:57:08;101117.75;;;12.36;nan
48089;BME280;33867;50.314;7.802;2023-04-08T10:00:32;101119.63;;;12.45;nan
48089;BME280;33867;50.314;7.802;2023-04-08T10:03:55;101115.69;;;12.19;nan
48089;BME280;33867;50.314;7.802;2023-04-08T10:07:15;101118.75;;;12.35;nan
48089;BME280;33867;50.314;7.802;2023-04-08T10:10:37;101121.03;;;12.40;nan
48089;BME280;33867;50.314;7.802;2023-04-08T10:13:58;101114.59;;;12.31;nan
48089;BME280;33867;50.314;7.802;2023-04-08T10:17:27;101125.91;;;12.46;nan
48089;BME280;33867;50.314;7.802;2023-04-08T10:20:47;101126.97;;;12.74;nan
48089;BME280;33867;50.314;7.802;2023-04-08T10:24:10;101124.09;;;12.66;nan
48089;BME280;33867;50.314;7.802;2023-04-08T10:27:39;101118.69;;;11.53;nan
48089;BME280;33867;50.314;7.802;2023-04-08T10:31:01;101117.44;;;11.78;nan
48089;BME280;33867;50.314;7.802;2023-04-08T10:34:22;101118.09;;;11.91;nan
48089;BME280;33867;50.314;7.802;2023-04-08T10:37:48;101118.75;;;12.05;nan
48089;BME280;33867;50.314;7.802;2023-04-08T10:41:10;101117.94;;;12.14;nan
48089;BME280;33867;50.314;7.802;2023-04-08T10:44:35;101111.88;;;12.31;nan
48089;BME280;33867;50.314;7.802;2023-04-08T10:48:18;101116.38;;;12.51;nan
48089;BME280;33867;50.314;7.802;2023-04-08T10:51:40;101109.41;;;12.09;nan
48089;BME280;33867;50.314;7.802;2023-04-08T10:55:08;101116.03;;;11.21;nan
48089;BME280;33867;50.314;7.802;2023-04-08T10:58:29;101122.56;;;11.39;nan
48089;BME280;33867;50.314;7.802;2023-04-08T11:01:48;101118.59;;;10.91;nan
48089;BME280;33867;50.314;7.802;2023-04-08T11:05:11;101112.72;;;10.86;nan
48089;BME280;33867;50.314;7.802;2023-04-08T11:08:33;101117.41;;;11.36;nan
48089;BME280;33867;50.314;7.802;2023-04-08T11:11:53;101118.25;;;10.73;nan
48089;BME280;33867;50.314;7.802;2023-04-08T11:15:16;101108.88;;;10.99;nan
48089;BME280;33867;50.314;7.802;2023-04-08T11:18:39;101114.25;;;10.67;nan
48089;BME280;33867;50.314;7.802;2023-04-08T11:22:00;101124.53;;;10.62;nan
48089;BME280;33867;50.314;7.802;2023-04-08T11:25:21;101122.91;;;10.82;nan
48089;BME280;33867;50.314;7.802;2023-04-08T11:28:43;101121.28;;;11.23;nan
48089;BME280;33867;50.314;7.802;2023-04-08T11:32:07;101114.78;;;11.46;nan
48089;BME280;33867;50.314;7.802;2023-04-08T11:35:32;101118.97;;;10.86;nan
48089;BME280;33867;50.314;7.802;2023-04-08T11:38:54;101104.69;;;11.38;nan
48089;BME280;33867;50.314;7.802;2023-04-08T11:47:09;101105.72;;;11.68;nan
48089;BME280;33867;50.314;7.802;2023-04-08T11:50:28;101125.25;;;11.39;nan
48089;BME280;33867;50.314;7.802;2023-04-08T11:53:48;101121.56;;;10.65;nan
48089;BME280;33867;50.314;7.802;2023-04-08T11:57:09;101127.44;;;10.81;nan
48089;BME280;33867;50.314;7.802;2023-04-08T12:00:29;101122.19;;;10.69;nan
48089;BME280;33867;50.314;7.802;2023-04-08T12:03:59;101114.34;;;11.41;nan
48089;BME280;33867;50.314;7.802;2023-04-08T12:07:19;101107.41;;;12.11;nan
48089;BME280;33867;50.314;7.802;2023-04-08T12:10:38;101112.91;;;12.99;nan
48089;BME280;33867;50.314;7.802;2023-04-08T12:13:57;101110.06;;;12.91;nan
48089;BME280;33867;50.314;7.802;2023-04-08T12:17:16;101103.81;;;13.00;nan
48089;BME280;33867;50.314;7.802;2023-04-08T12:20:35;101100.00;;;13.51;nan
48089;BME280;33867;50.314;7.802;2023-04-08T12:23:54;101110.38;;;13.36;nan
48089;BME280;33867;50.314;7.802;2023-04-08T12:27:13;101100.28;;;14.04;nan
48089;BME280;33867;50.314;7.802;2023-04-08T12:30:33;101100.38;;;15.48;nan
48089;BME280;33867;50.314;7.802;2023-04-08T12:33:52;101101.56;;;14.10;nan
48089;BME280;33867;50.314;7.802;2023-04-08T12:37:11;101097.78;;;14.85;nan
48089;BME280;33867;50.314;7.802;2023-04-08T12:40:30;101086.59;;;15.60;nan
48089;BME280;33867;50.314;7.802;2023-04-08T12:43:49;101094.84;;;14.97;nan
48089;BME280;33867;50.314;7.802;2023-04-08T12:47:08;101082.19;;;15.41;nan
48089;BME280;33867;50.314;7.802;2023-04-08T12:50:28;101092.72;;;15.44;nan
48089;BME280;33867;50.314;7.802;2023-04-08T12:53:47;101080.78;;;15.37;nan
48089;BME280;33867;50.314;7.802;2023-04-08T12:57:06;101076.88;;;15.57;nan
48089;BME280;33867;50.314;7.802;2023-04-08T13:00:25;101075.28;;;15.46;nan
48089;BME280;33867;50.314;7.802;2023-04-08T13:03:45;101083.00;;;14.43;nan
48089;BME280;33867;50.314;7.802;2023-04-08T13:07:05;101075.06;;;14.69;nan
48089;BME280;33867;50.314;7.802;2023-04-08T13:10:25;101074.75;;;15.87;nan
48089;BME280;33867;50.314;7.802;2023-04-08T13:13:44;101077.16;;;16.32;nan
48089;BME280;33867;50.314;7.802;2023-04-08T13:17:04;101080.31;;;15.85;nan
48089;BME280;33867;50.314;7.802;2023-04-08T13:20:24;101077.00;;;16.25;nan
48089;BME280;33867;50.314;7.802;2023-04-08T13:23:43;101081.97;;;16.38;nan
48089;BME280;33867;50.314;7.802;2023-04-08T13:27:04;101079.59;;;14.13;nan
48089;BME280;33867;50.314;7.802;2023-04-08T13:30:23;101080.13;;;14.54;nan
48089;BME280;33867;50.314;7.802;2023-04-08T13:33:42;101089.56;;;13.75;nan
48089;BME280;33867;50.314;7.802;2023-04-08T13:37:01;101085.81;;;13.86;nan
48089;BME280;33867;50.314;7.802;2023-04-08T13:40:20;101090.97;;;13.80;nan
48089;BME280;33867;50.314;7.802;2023-04-08T13:43:40;101087.94;;;13.92;nan
48089;BME280;33867;50.314;7.802;2023-04-08T13:46:59;101086.56;;;13.79;nan
48089;BME280;33867;50.314;7.802;2023-04-08T13:50:18;101088.22;;;13.89;nan
48089;BME280;33867;50.314;7.802;2023-04-08T13:53:37;101085.00;;;14.13;nan
48089;BME280;33867;50.314;7.802;2023-04-08T13:56:56;101081.13;;;13.79;nan
48089;BME280;33867;50.314;7.802;2023-04-08T14:00:15;101073.06;;;14.06;nan
48089;BME280;33867;50.314;7.802;2023-04-08T14:03:34;101066.78;;;14.05;nan
48089;BME280;33867;50.314;7.802;2023-04-08T14:06:54;101077.81;;;13.28;nan
48089;BME280;33867;50.314;7.802;2023-04-08T14:10:15;101078.06;;;13.15;nan
48089;BME280;33867;50.314;7.802;2023-04-08T14:13:35;101078.88;;;12.58;nan
48089;BME280;33867;50.314;7.802;2023-04-08T14:16:55;101080.91;;;13.14;nan
48089;BME280;33867;50.314;7.802;2023-04-08T14:20:14;101079.81;;;13.26;nan
48089;BME280;33867;50.314;7.802;2023-04-08T14:23:33;101086.34;;;13.24;nan
48089;BME280;33867;50.314;7.802;2023-04-08T14:26:52;101093.03;;;13.20;nan
48089;BME280;33867;50.314;7.802;2023-04-08T14:30:12;101092.72;;;13.03;nan
48089;BME280;33867;50.314;7.802;2023-04-08T14:33:33;101082.03;;;13.11;nan
48089;BME280;33867;50.314;7.802;2023-04-08T14:36:52;101084.31;;;13.06;nan
48089;BME280;33867;50.314;7.802;2023-04-08T14:40:11;101081.31;;;12.90;nan
48089;BME280;33867;50.314;7.802;2023-04-08T14:43:31;101080.34;;;12.91;nan
48089;BME280;33867;50.314;7.802;2023-04-08T14:46:50;101080.06;;;12.94;nan
48089;BME280;33867;50.314;7.802;2023-04-08T14:50:10;101075.81;;;13.21;nan
48089;BME280;33867;50.314;7.802;2023-04-08T14:53:29;101068.94;;;12.97;nan
48089;BME280;33867;50.314;7.802;2023-04-08T14:56:48;101071.22;;;12.73;nan
48089;BME280;33867;50.314;7.802;2023-04-08T15:00:07;101071.22;;;12.73;nan
48089;BME280;33867;50.314;7.802;2023-04-08T15:03:27;101080.28;;;12.62;nan
48089;BME280;33867;50.314;7.802;2023-04-08T15:06:49;101073.00;;;12.43;nan
48089;BME280;33867;50.314;7.802;2023-04-08T15:10:09;101077.72;;;12.61;nan
48089;BME280;33867;50.314;7.802;2023-04-08T15:13:28;101075.22;;;12.98;nan
48089;BME280;33867;50.314;7.802;2023-04-08T15:16:47;101065.69;;;13.23;nan
48089;BME280;33867;50.314;7.802;2023-04-08T15:20:07;101071.66;;;13.45;nan
48089;BME280;33867;50.314;7.802;2023-04-08T15:23:26;101066.38;;;13.63;nan
48089;BME280;33867;50.314;7.802;2023-04-08T15:26:45;101077.91;;;13.65;nan
48089;BME280;33867;50.314;7.802;2023-04-08T15:30:05;101063.63;;;13.73;nan
48089;BME280;33867;50.314;7.802;2023-04-08T15:33:24;101076.06;;;13.56;nan
48089;BME280;33867;50.314;7.802;2023-04-08T15:36:43;101069.78;;;13.65;nan
48089;BME280;33867;50.314;7.802;2023-04-08T15:40:03;101058.03;;;13.84;nan
48089;BME280;33867;50.314;7.802;2023-04-08T15:43:22;101079.19;;;12.84;nan
48089;BME280;33867;50.314;7.802;2023-04-08T15:46:41;101075.78;;;12.82;nan
48089;BME280;33867;50.314;7.802;2023-04-08T15:50:00;101083.88;;;13.01;nan
48089;BME280;33867;50.314;7.802;2023-04-08T15:53:19;101080.59;;;12.88;nan
48089;BME280;33867;50.314;7.802;2023-04-08T15:56:38;101088.84;;;12.77;nan
48089;BME280;33867;50.314;7.802;2023-04-08T15:59:57;101080.06;;;12.94;nan
48089;BME280;33867;50.314;7.802;2023-04-08T16:03:16;101076.06;;;12.88;nan
48089;BME280;33867;50.314;7.802;2023-04-08T16:06:35;101084.75;;;13.11;nan
48089;BME280;33867;50.314;7.802;2023-04-08T16:09:54;101087.44;;;13.11;nan
48089;BME280;33867;50.314;7.802;2023-04-08T16:13:14;101085.34;;;13.15;nan
48089;BME280;33867;50.314;7.802;2023-04-08T16:16:33;101081.91;;;13.03;nan
48089;BME280;33867;50.314;7.802;2023-04-08T16:19:53;101085.75;;;13.10;nan
48089;BME280;33867;50.314;7.802;2023-04-08T16:23:12;101083.88;;;12.72;nan
48089;BME280;33867;50.314;7.802;2023-04-08T16:26:32;101093.84;;;12.81;nan
48089;BME280;33867;50.314;7.802;2023-04-08T16:29:51;101100.25;;;12.80;nan
48089;BME280;33867;50.314;7.802;2023-04-08T16:33:11;101101.47;;;12.57;nan
48089;BME280;33867;50.314;7.802;2023-04-08T16:36:30;101094.47;;;12.54;nan
48089;BME280;33867;50.314;7.802;2023-04-08T16:39:50;101106.69;;;12.49;nan
48089;BME280;33867;50.314;7.802;2023-04-08T16:43:08;101111.25;;;12.48;nan
48089;BME280;33867;50.314;7.802;2023-04-08T16:46:28;101106.66;;;12.39;nan
48089;BME280;33867;50.314;7.802;2023-04-08T16:49:47;101113.53;;;12.43;nan
48089;BME280;33867;50.314;7.802;2023-04-08T16:53:06;101118.19;;;12.41;nan
48089;BME280;33867;50.314;7.802;2023-04-08T16:56:25;101110.19;;;12.30;nan
48089;BME280;33867;50.314;7.802;2023-04-08T16:59:44;101109.66;;;12.06;nan
48089;BME280;33867;50.314;7.802;2023-04-08T17:03:04;101118.75;;;12.05;nan
48089;BME280;33867;50.314;7.802;2023-04-08T17:06:24;101127.31;;;11.68;nan
48089;BME280;33867;50.314;7.802;2023-04-08T17:09:48;101132.28;;;11.31;nan
48089;BME280;33867;50.314;7.802;2023-04-08T17:13:07;101137.19;;;10.94;nan
48089;BME280;33867;50.314;7.802;2023-04-08T17:16:26;101129.91;;;11.17;nan
48089;BME280;33867;50.314;7.802;2023-04-08T17:19:45;101129.41;;;11.11;nan
48089;BME280;33867;50.314;7.802;2023-04-08T17:23:05;101139.13;;;11.03;nan
48089;BME280;33867;50.314;7.802;2023-04-08T17:26:25;101142.72;;;10.92;nan
48089;BME280;33867;50.314;7.802;2023-04-08T17:29:43;101137.69;;;10.88;nan
48089;BME280;33867;50.314;7.802;2023-04-08T17:33:03;101143.44;;;10.94;nan
48089;BME280;33867;50.314;7.802;2023-04-08T17:36:23;101142.72;;;10.92;nan
48089;BME280;33867;50.314;7.802;2023-04-08T17:39:42;101152.66;;;10.80;nan
48089;BME280;33867;50.314;7.802;2023-04-08T17:43:02;101151.09;;;10.78;nan
48089;BME280;33867;50.314;7.802;2023-04-08T17:46:21;101152.28;;;10.74;nan
48089;BME280;33867;50.314;7.802;2023-04-08T17:49:40;101149.44;;;10.87;nan
48089;BME280;33867;50.314;7.802;2023-04-08T17:53:03;101149.44;;;10.87;nan
48089;BME280;33867;50.314;7.802;2023-04-08T17:56:21;101158.66;;;10.84;nan
48089;BME280;33867;50.314;7.802;2023-04-08T17:59:41;101147.72;;;10.97;nan
48089;BME280;33867;50.314;7.802;2023-04-08T18:03:00;101156.97;;;10.72;nan
48089;BME280;33867;50.314;7.802;2023-04-08T18:06:19;101159.78;;;10.59;nan
48089;BME280;33867;50.314;7.802;2023-04-08T18:09:38;101156.63;;;10.54;nan